Time;durP1;ratioP1;P1;durP2;ratioP2;P2;SDS_P1;SDS_P2;PMS_P1;PMS_P2;Temp;Humidity;BMP_temperature;BMP_pressure;BME280_temperature;BME280_humidity;BME280_pressure;Samples;Min_cycle;Max_cycle;Signal;HPM_P1;HPM_P2
2024/03/09 00:00:42;;;;;;;22.92;14.65;;;14.20;64.40;;;;;;4027134;29;20535;-45
2024/03/09 00:03:26;;;;;;;21.15;12.90;;;14.20;64.70;;;;;;4023809;29;20060;-46
2024/03/09 00:06:12;;;;;;;19.00;13.05;;;14.20;64.50;;;;;;4001200;29;20105;-44
2024/03/09 00:08:53;;;;;;;21.40;13.38;;;14.20;64.60;;;;;;4026689;29;20075;-45
2024/03/09 00:11:35;;;;;;;22.27;14.57;;;14.20;65.00;;;;;;4025688;29;20519;-49
2024/03/09 00:14:16;;;;;;;;;;;14.20;65.20;;;;;;4042954;29;20410;-47
2024/03/09 00:16:57;;;;;;;21.00;13.13;;;14.10;65.20;;;;;;4017447;29;19935;-45
2024/03/09 00:19:40;;;;;;;;;;;14.10;66.20;;;;;;4030313;29;20497;-47
2024/03/09 00:22:21;;;;;;;20.55;12.73;;;14.10;65.90;;;;;;4051969;29;19930;-47
2024/03/09 00:25:03;;;;;;;19.77;12.30;;;14.10;66.50;;;;;;4057942;29;20094;-42
2024/03/09 00:27:44;;;;;;;;;;;14.00;66.20;;;;;;4042885;29;20075;-45
2024/03/09 00:30:29;;;;;;;20.53;12.00;;;14.00;66.20;;;;;;4026862;29;19935;-43
2024/03/09 00:33:11;;;;;;;19.20;12.35;;;14.00;67.00;;;;;;4014738;29;20511;-44
2024/03/09 00:35:54;;;;;;;19.50;12.52;;;14.00;66.70;;;;;;4014584;29;20093;-47
2024/03/09 00:38:35;;;;;;;19.15;12.55;;;14.00;66.20;;;;;;4029453;29;20105;-51
2024/03/09 00:41:16;;;;;;;17.90;11.82;;;14.00;66.20;;;;;;4041625;29;20071;-50
2024/03/09 00:43:58;;;;;;;19.45;12.38;;;14.00;66.20;;;;;;4060401;29;20059;-47
2024/03/09 00:46:39;;;;;;;21.30;12.75;;;13.90;66.10;;;;;;4053459;29;20068;-48
2024/03/09 00:49:20;;;;;;;16.70;11.70;;;13.90;66.10;;;;;;4036078;29;20128;-45
2024/03/09 00:52:05;;;;;;;17.58;12.25;;;13.90;66.20;;;;;;4046426;29;20055;-44
2024/03/09 00:54:46;;;;;;;19.40;12.85;;;13.90;66.00;;;;;;4059536;29;20484;-45
2024/03/09 00:57:27;;;;;;;21.83;13.32;;;13.90;65.90;;;;;;4060994;29;20559;-49
2024/03/09 01:00:11;;;;;;;17.85;12.25;;;13.90;65.90;;;;;;4029239;29;20131;-45
2024/03/09 01:02:52;;;;;;;19.27;12.20;;;13.90;66.00;;;;;;4028608;29;20136;-43
2024/03/09 01:05:33;;;;;;;17.90;11.68;;;13.90;66.20;;;;;;4032018;29;20060;-42
2024/03/09 01:08:15;;;;;;;19.40;12.65;;;13.90;66.10;;;;;;4045039;29;20192;-44
2024/03/09 01:10:59;;;;;;;19.33;12.10;;;13.80;66.00;;;;;;4044323;29;20056;-45
2024/03/09 01:13:41;;;;;;;19.38;12.18;;;13.80;65.90;;;;;;4034407;29;20410;-45
2024/03/09 01:16:22;;;;;;;18.60;12.15;;;13.80;65.60;;;;;;4029274;29;20056;-44
2024/03/09 01:19:05;;;;;;;20.65;12.75;;;13.80;66.00;;;;;;4027756;29;20278;-42
2024/03/09 01:21:47;;;;;;;19.17;12.20;;;13.80;66.20;;;;;;4056868;29;20416;-48
2024/03/09 01:24:29;;;;;;;18.90;12.27;;;13.80;66.40;;;;;;4058635;29;20059;-44
2024/03/09 01:27:11;;;;;;;19.85;12.77;;;13.80;66.10;;;;;;4044453;29;20055;-44
2024/03/09 01:29:54;;;;;;;18.83;12.27;;;13.80;66.40;;;;;;4043499;29;20059;-44
2024/03/09 01:32:35;;;;;;;21.35;13.82;;;13.90;66.30;;;;;;4020740;29;20622;-46
2024/03/09 01:35:16;;;;;;;17.38;11.70;;;13.90;65.90;;;;;;4034481;29;20100;-45
2024/03/09 01:37:58;;;;;;;18.08;12.32;;;13.90;65.70;;;;;;4032759;29;20128;-42
2024/03/09 01:40:41;;;;;;;18.27;11.40;;;13.90;66.50;;;;;;4036891;29;20137;-50
2024/03/09 01:43:23;;;;;;;17.83;12.38;;;14.00;67.40;;;;;;4033961;29;20414;-51
2024/03/09 01:46:05;;;;;;;16.63;11.73;;;14.10;67.50;;;;;;4028769;29;20052;-45
2024/03/09 01:48:49;;;;;;;19.45;12.90;;;14.20;67.20;;;;;;4040385;29;20064;-42
2024/03/09 01:51:30;;;;;;;17.33;11.48;;;14.30;67.10;;;;;;4059469;29;20055;-46
2024/03/09 01:54:12;;;;;;;19.77;12.27;;;14.40;67.10;;;;;;4059982;29;20055;-46
2024/03/09 01:56:55;;;;;;;19.15;12.77;;;14.50;66.90;;;;;;4047836;29;20060;-44
2024/03/09 01:59:37;;;;;;;17.90;11.82;;;14.60;66.40;;;;;;4029819;29;20518;-50
2024/03/09 02:02:20;;;;;;;18.92;12.20;;;14.60;66.10;;;;;;4012983;29;20124;-47
2024/03/09 02:05:10;;;;;;;20.00;13.23;;;14.60;66.00;;;;;;4013358;29;20514;-47
2024/03/09 02:07:51;;;;;;;17.60;11.63;;;14.60;65.90;;;;;;4027964;29;20061;-48
2024/03/09 02:10:32;;;;;;;18.05;12.30;;;14.60;66.10;;;;;;4018197;29;20199;-46
2024/03/09 02:13:17;;;;;;;21.70;13.35;;;14.60;65.90;;;;;;4013015;29;20518;-51
2024/03/09 02:15:59;;;;;;;18.45;12.75;;;14.50;65.80;;;;;;4013000;29;20060;-51
2024/03/09 02:18:40;;;;;;;20.30;13.05;;;14.50;66.50;;;;;;4013155;29;20060;-48
2024/03/09 02:21:21;;;;;;;21.05;13.45;;;14.60;66.50;;;;;;4013021;29;20064;-48
2024/03/09 02:24:08;;;;;;;16.30;11.95;;;14.70;66.50;;;;;;4012997;29;20174;-52
2024/03/09 02:26:52;;;;;;;17.92;12.60;;;14.70;66.20;;;;;;4013067;29;20057;-47
2024/03/09 02:29:33;;;;;;;20.70;13.55;;;14.80;66.10;;;;;;4013182;29;20177;-49
2024/03/09 02:32:15;;;;;;;20.17;13.77;;;14.80;65.90;;;;;;4019885;29;20103;-46
2024/03/09 02:34:56;;;;;;;20.60;12.63;;;14.80;65.90;;;;;;4012482;29;20080;-47
2024/03/09 02:37:38;;;;;;;19.50;13.15;;;14.80;65.90;;;;;;4012897;29;20100;-42
2024/03/09 02:40:19;;;;;;;18.48;12.63;;;14.90;65.50;;;;;;4020212;29;20189;-43
2024/03/09 02:43:06;;;;;;;19.30;12.48;;;14.90;65.60;;;;;;4026862;29;20418;-43
2024/03/09 02:45:47;;;;;;;21.13;14.07;;;14.90;65.50;;;;;;4028091;29;20084;-42
2024/03/09 02:48:29;;;;;;;20.90;13.85;;;14.90;65.70;;;;;;4015222;29;20060;-42
2024/03/09 02:51:12;;;;;;;21.42;13.38;;;14.90;65.80;;;;;;4013906;29;20243;-42
2024/03/09 02:53:53;;;;;;;21.58;13.10;;;15.00;65.80;;;;;;4012490;29;20418;-43
2024/03/09 02:56:34;;;;;;;23.02;14.00;;;15.00;65.30;;;;;;4012465;29;20064;-43
2024/03/09 02:59:17;;;;;;;20.95;13.05;;;15.00;65.30;;;;;;4012534;29;20077;-44
2024/03/09 03:02:02;;;;;;;20.27;13.13;;;15.00;64.30;;;;;;4027897;29;20056;-44
2024/03/09 03:04:42;;;;;;;19.95;12.88;;;15.10;64.50;;;;;;4042862;29;20108;-43
2024/03/09 03:07:23;;;;;;;19.23;14.10;;;15.20;64.40;;;;;;4033122;29;20511;-45
2024/03/09 03:10:08;;;;;;;19.38;12.80;;;15.20;64.00;;;;;;4044117;29;20417;-43
2024/03/09 03:12:49;;;;;;;22.05;14.27;;;15.20;64.20;;;;;;4015828;29;20136;-45
2024/03/09 03:15:31;;;;;;;22.75;14.10;;;15.20;63.70;;;;;;4026829;29;20060;-44
2024/03/09 03:18:14;;;;;;;20.38;13.82;;;15.20;62.50;;;;;;4022948;29;20790;-47
2024/03/09 03:20:55;;;;;;;20.83;13.82;;;15.20;61.70;;;;;;4022949;29;20388;-47
2024/03/09 03:23:37;;;;;;;19.58;12.75;;;15.20;63.50;;;;;;4043316;29;20068;-43
2024/03/09 03:26:19;;;;;;;19.40;12.63;;;15.10;63.50;;;;;;4043160;29;20417;-45
2024/03/09 03:29:01;;;;;;;23.77;15.40;;;15.10;63.90;;;;;;4042884;29;20658;-47
2024/03/09 03:31:44;;;;;;;17.98;13.02;;;15.00;63.70;;;;;;4027651;29;20141;-43
2024/03/09 03:34:26;;;;;;;20.85;13.38;;;14.90;64.70;;;;;;4057659;29;20078;-46
2024/03/09 03:37:08;;;;;;;19.65;14.10;;;14.90;65.30;;;;;;4021777;29;20072;-44
2024/03/09 03:39:49;;;;;;;19.60;13.27;;;15.00;65.60;;;;;;4027277;29;20056;-45
2024/03/09 03:42:31;;;;;;;18.88;13.65;;;15.00;65.00;;;;;;4035396;29;20505;-46
2024/03/09 03:45:13;;;;;;;20.65;13.88;;;15.00;65.60;;;;;;4027552;29;20060;-43
2024/03/09 03:47:56;;;;;;;19.88;13.63;;;15.10;65.60;;;;;;4027263;29;20562;-45
2024/03/09 03:50:37;;;;;;;21.25;14.70;;;15.20;65.40;;;;;;4026659;29;20426;-44
2024/03/09 03:53:18;;;;;;;20.27;13.88;;;15.20;64.90;;;;;;4041783;29;20509;-43
2024/03/09 03:55:59;;;;;;;23.58;15.35;;;15.30;63.70;;;;;;4019830;29;20068;-41
2024/03/09 03:58:44;;;;;;;20.40;14.38;;;15.30;64.30;;;;;;3999769;29;20514;-41
2024/03/09 04:01:26;;;;;;;21.30;14.73;;;15.30;64.50;;;;;;4015411;29;20048;-45
2024/03/09 04:04:09;;;;;;;19.55;12.82;;;15.40;64.40;;;;;;4054109;29;20523;-42
2024/03/09 04:06:50;;;;;;;22.85;14.70;;;15.40;64.00;;;;;;4046956;29;20060;-45
2024/03/09 04:09:32;;;;;;;19.73;13.85;;;15.50;63.40;;;;;;4045324;29;20059;-43
2024/03/09 04:12:14;;;;;;;22.30;14.32;;;15.40;63.60;;;;;;4045890;29;20409;-43
2024/03/09 04:14:57;;;;;;;21.58;14.90;;;15.40;64.20;;;;;;4036760;29;20060;-43
2024/03/09 04:17:38;;;;;;;20.05;13.40;;;15.40;64.30;;;;;;4056865;29;20172;-48
2024/03/09 04:20:21;;;;;;;;;;;15.40;64.30;;;;;;4034859;29;20099;-42
2024/03/09 04:23:04;;;;;;;21.40;14.75;;;15.40;64.10;;;;;;4019540;29;20300;-48
2024/03/09 04:25:50;;;;;;;23.70;15.05;;;15.40;64.10;;;;;;4060838;29;20061;-47
2024/03/09 04:28:32;;;;;;;23.70;15.38;;;15.40;64.30;;;;;;4060370;29;20055;-48
2024/03/09 04:31:15;;;;;;;23.08;14.23;;;15.30;64.50;;;;;;4046602;29;20162;-44
2024/03/09 04:33:56;;;;;;;25.92;17.02;;;15.20;64.60;;;;;;4023355;29;20418;-48
2024/03/09 04:36:40;;;;;;;22.48;15.57;;;15.20;64.90;;;;;;4029250;29;20615;-49
2024/03/09 04:39:21;;;;;;;22.80;14.20;;;15.20;64.70;;;;;;4029459;29;20096;-43
2024/03/09 04:42:04;;;;;;;19.60;14.52;;;15.20;64.70;;;;;;4034161;29;20078;-43
2024/03/09 04:44:45;;;;;;;23.40;15.18;;;15.10;64.50;;;;;;4027912;29;20135;-41
2024/03/09 04:47:27;;;;;;;23.98;15.70;;;15.10;64.90;;;;;;4029067;29;20067;-40
2024/03/09 04:50:10;;;;;;;23.50;15.02;;;15.00;65.10;;;;;;4038697;29;20487;-45
2024/03/09 04:52:53;;;;;;;24.42;15.77;;;15.10;65.30;;;;;;4025551;29;20398;-43
2024/03/09 04:55:35;;;;;;;21.42;16.00;;;15.20;65.00;;;;;;4045105;29;20055;-43
2024/03/09 04:58:17;;;;;;;23.90;15.43;;;15.20;64.70;;;;;;4044631;29;20060;-47
2024/03/09 05:00:59;;;;;;;21.73;14.40;;;15.30;64.80;;;;;;4044368;29;20060;-48
2024/03/09 05:03:40;;;;;;;21.37;14.53;;;15.30;64.70;;;;;;4035305;29;20076;-46
2024/03/09 05:06:21;;;;;;;24.48;16.08;;;15.40;64.50;;;;;;4028613;29;20136;-44
2024/03/09 05:09:03;;;;;;;24.42;16.38;;;15.50;64.40;;;;;;4028860;29;20055;-46
2024/03/09 05:11:44;;;;;;;24.52;16.88;;;15.50;64.20;;;;;;4028825;29;20063;-43
2024/03/09 05:14:26;;;;;;;23.85;15.18;;;15.60;64.10;;;;;;4040317;29;20087;-46
2024/03/09 05:17:07;;;;;;;24.30;16.33;;;15.60;63.90;;;;;;4027238;29;20060;-44
2024/03/09 05:19:48;;;;;;;21.58;15.55;;;15.60;64.00;;;;;;4035605;29;20199;-44
2024/03/09 05:22:29;;;;;;;25.63;17.20;;;15.60;63.90;;;;;;4043979;29;20059;-46
2024/03/09 05:25:12;;;;;;;23.38;15.40;;;15.50;64.10;;;;;;4044310;29;20059;-44
2024/03/09 05:27:54;;;;;;;26.90;18.40;;;15.50;63.30;;;;;;4038433;29;20064;-42
2024/03/09 05:30:35;;;;;;;24.40;15.52;;;15.50;63.20;;;;;;4028763;29;20064;-44
2024/03/09 05:33:17;;;;;;;26.20;17.48;;;15.50;63.50;;;;;;4020971;29;20520;-46
2024/03/09 05:35:58;;;;;;;24.00;16.58;;;15.50;63.60;;;;;;4013257;29;20061;-43
2024/03/09 05:38:41;;;;;;;23.63;17.42;;;15.50;63.50;;;;;;4019081;29;20133;-40
2024/03/09 05:41:23;;;;;;;25.63;17.30;;;15.50;63.40;;;;;;4028120;29;20063;-40
2024/03/09 05:44:04;;;;;;;22.55;15.80;;;15.50;63.40;;;;;;4023053;29;20096;-41
2024/03/09 05:46:48;;;;;;;22.25;14.95;;;15.40;64.10;;;;;;4013328;29;20056;-41
2024/03/09 05:49:29;;;;;;;25.38;17.08;;;15.40;64.30;;;;;;4034550;29;20161;-41
2024/03/09 05:52:10;;;;;;;24.88;17.05;;;15.40;64.40;;;;;;4039589;29;20132;-41
2024/03/09 05:54:52;;;;;;;28.88;17.65;;;15.40;64.40;;;;;;4028475;29;20414;-42
2024/03/09 05:57:34;;;;;;;27.38;17.85;;;15.40;64.30;;;;;;4028058;29;20104;-41
2024/03/09 06:00:17;;;;;;;27.90;18.17;;;15.40;64.30;;;;;;4043981;29;20051;-43
2024/03/09 06:03:01;;;;;;;25.60;16.77;;;15.40;64.40;;;;;;4032152;29;20051;-41
2024/03/09 06:05:45;;;;;;;27.25;16.33;;;15.30;64.20;;;;;;4028535;29;20477;-48
2024/03/09 06:08:26;;;;;;;28.58;17.40;;;15.30;64.60;;;;;;4031687;29;20051;-44
2024/03/09 06:11:08;;;;;;;25.80;16.92;;;15.20;64.90;;;;;;4043637;29;20067;-45
2024/03/09 06:13:50;;;;;;;26.50;17.20;;;15.20;65.00;;;;;;4012972;29;20068;-48
2024/03/09 06:16:33;;;;;;;26.98;17.13;;;15.30;65.10;;;;;;4013271;29;20061;-45
2024/03/09 06:19:14;;;;;;;27.52;17.83;;;15.40;64.80;;;;;;4038096;29;20056;-44
2024/03/09 06:21:55;;;;;;;25.90;17.25;;;15.40;64.50;;;;;;4043364;29;20131;-45
2024/03/09 06:24:36;;;;;;;22.77;16.02;;;15.50;64.20;;;;;;4043266;29;20063;-42
2024/03/09 06:27:17;;;;;;;26.55;16.85;;;15.60;64.10;;;;;;4001027;29;20402;-44
2024/03/09 06:30:00;;;;;;;26.30;17.45;;;15.60;63.70;;;;;;4012099;29;20094;-45
2024/03/09 06:32:41;;;;;;;27.77;18.35;;;15.70;62.90;;;;;;4027392;29;20063;-46
2024/03/09 06:35:25;;;;;;;28.15;18.10;;;15.70;62.60;;;;;;4027953;29;20080;-45
2024/03/09 06:38:09;;;;;;;27.33;19.98;;;15.70;63.00;;;;;;4028074;29;20051;-44
2024/03/09 06:40:50;;;;;;;29.73;19.92;;;15.70;60.90;;;;;;4027226;29;20123;-43
2024/03/09 06:43:31;;;;;;;25.83;17.60;;;15.70;60.40;;;;;;4016321;29;20190;-42
2024/03/09 06:46:14;;;;;;;25.40;17.80;;;15.60;61.70;;;;;;4017468;29;20533;-47
2024/03/09 06:48:57;;;;;;;24.70;17.27;;;15.60;60.60;;;;;;4016832;29;20149;-50
2024/03/09 06:51:40;;;;;;;27.13;18.08;;;15.60;60.90;;;;;;4012228;29;20518;-50
2024/03/09 06:54:20;;;;;;;28.02;17.65;;;15.60;62.00;;;;;;4012214;29;20526;-45
2024/03/09 06:57:01;;;;;;;32.17;19.40;;;15.50;62.40;;;;;;4012088;29;20119;-50
2024/03/09 06:59:43;;;;;;;26.30;17.98;;;15.40;62.30;;;;;;4012542;29;20065;-45
2024/03/09 07:02:25;;;;;;;30.33;18.20;;;15.30;62.80;;;;;;4017535;29;20060;-46
2024/03/09 07:05:09;;;;;;;29.45;18.90;;;15.30;63.00;;;;;;4025282;29;20079;-45
2024/03/09 07:07:50;;;;;;;29.77;18.40;;;15.20;63.40;;;;;;4012508;29;20131;-48
2024/03/09 07:10:33;;;;;;;27.50;17.80;;;15.20;63.50;;;;;;4012734;29;20056;-47
2024/03/09 07:13:15;;;;;;;27.92;15.52;;;15.30;62.80;;;;;;4031123;29;20047;-47
2024/03/09 07:15:56;;;;;;;;;;;15.30;63.00;;;;;;4042957;29;20063;-48
2024/03/09 07:18:38;;;;;;;27.97;19.47;;;15.40;63.10;;;;;;4027587;29;19934;-50
2024/03/09 07:21:22;;;;;;;29.52;19.27;;;15.50;63.30;;;;;;4019507;29;20493;-46
2024/03/09 07:24:06;;;;;;;27.48;18.08;;;15.50;63.00;;;;;;4043010;29;20107;-46
2024/03/09 07:26:48;;;;;;;26.67;18.38;;;15.60;62.80;;;;;;4014700;29;20065;-47
2024/03/09 07:29:29;;;;;;;33.08;19.27;;;15.60;62.80;;;;;;4017340;29;20108;-48
2024/03/09 07:32:10;;;;;;;29.25;19.73;;;15.60;62.90;;;;;;4011861;29;20081;-45
2024/03/09 07:34:55;;;;;;;27.90;19.45;;;15.60;62.70;;;;;;4012102;29;20076;-46
2024/03/09 07:37:40;;;;;;;28.05;19.77;;;15.60;62.00;;;;;;4011824;29;20094;-49
2024/03/09 07:40:23;;;;;;;30.27;19.67;;;15.60;61.10;;;;;;4016399;29;20566;-45
2024/03/09 07:43:05;;;;;;;31.42;21.48;;;15.60;60.90;;;;;;4012698;29;20142;-45
2024/03/09 07:45:47;;;;;;;28.95;19.13;;;15.60;60.30;;;;;;4003993;29;20507;-50
2024/03/09 07:48:28;;;;;;;29.52;19.27;;;15.60;60.10;;;;;;4015106;29;20069;-49
2024/03/09 07:51:10;;;;;;;29.50;20.27;;;15.60;60.10;;;;;;4021568;29;20129;-51
2024/03/09 07:53:52;;;;;;;27.35;18.90;;;15.60;59.70;;;;;;4018764;29;20165;-49
2024/03/09 07:56:33;;;;;;;29.33;19.63;;;15.70;60.20;;;;;;4025838;29;20063;-47
2024/03/09 07:59:15;;;;;;;31.15;20.98;;;15.80;59.30;;;;;;4014987;29;20155;-46
2024/03/09 08:01:56;;;;;;;30.67;19.90;;;15.80;58.90;;;;;;4015154;29;20574;-49
2024/03/09 08:04:37;;;;;;;35.70;20.88;;;15.80;59.20;;;;;;4013774;29;20060;-49
2024/03/09 08:07:20;;;;;;;29.85;20.67;;;15.80;58.40;;;;;;4014843;29;20486;-47
2024/03/09 08:10:01;;;;;;;31.10;20.67;;;15.80;58.00;;;;;;4019370;29;20063;-50
2024/03/09 08:12:42;;;;;;;30.87;20.70;;;15.80;57.80;;;;;;4045697;29;20064;-51
2024/03/09 08:15:24;;;;;;;27.35;19.25;;;15.80;57.80;;;;;;4034662;29;20501;-45
2024/03/09 08:18:07;;;;;;;29.90;19.65;;;15.80;58.70;;;;;;4029641;29;20060;-47
2024/03/09 08:20:49;;;;;;;29.08;21.05;;;15.80;59.00;;;;;;4030149;29;20084;-48
2024/03/09 08:23:31;;;;;;;;;;;15.70;58.70;;;;;;4023139;29;20068;-48
2024/03/09 08:26:12;;;;;;;31.17;21.02;;;15.60;59.20;;;;;;4015094;29;20048;-46
2024/03/09 08:28:53;;;;;;;;;;;15.60;59.00;;;;;;4014970;29;20057;-49
2024/03/09 08:31:34;;;;;;;30.52;20.42;;;15.60;59.00;;;;;;4014486;29;19966;-47
2024/03/09 08:34:15;;;;;;;29.92;19.42;;;15.60;59.60;;;;;;4014619;29;20056;-46
2024/03/09 08:36:56;;;;;;;27.27;19.02;;;15.60;59.40;;;;;;4014742;29;20060;-45
2024/03/09 08:39:39;;;;;;;26.38;18.92;;;15.60;59.60;;;;;;4025996;29;20624;-48
2024/03/09 08:42:23;;;;;;;30.88;20.35;;;15.60;58.80;;;;;;4017029;29;20052;-47
2024/03/09 08:45:06;;;;;;;32.22;20.08;;;15.70;60.30;;;;;;4014136;29;20182;-47
2024/03/09 08:47:48;;;;;;;29.05;18.73;;;15.70;59.80;;;;;;4013878;29;20064;-47
2024/03/09 08:50:28;;;;;;;32.63;20.93;;;15.60;60.00;;;;;;4015174;29;20084;-47
2024/03/09 08:53:10;;;;;;;25.83;18.67;;;15.60;60.40;;;;;;4030326;29;20405;-44
2024/03/09 08:55:53;;;;;;;27.30;18.80;;;15.50;59.80;;;;;;4045149;29;20070;-42
2024/03/09 08:58:34;;;;;;;27.58;19.38;;;15.50;60.20;;;;;;4030668;29;20073;-43
2024/03/09 09:01:15;;;;;;;;;;;15.60;60.10;;;;;;4022868;29;20419;-42
2024/03/09 09:03:59;;;;;;;29.67;20.60;;;15.60;59.80;;;;;;4035143;29;19981;-43
2024/03/09 09:06:40;;;;;;;31.13;18.23;;;15.50;59.30;;;;;;4014363;29;20354;-42
2024/03/09 09:09:25;;;;;;;29.00;19.30;;;15.50;59.50;;;;;;4014181;29;20052;-42
2024/03/09 09:12:10;;;;;;;25.73;19.52;;;15.50;59.20;;;;;;4026062;29;20194;-41
2024/03/09 09:14:51;;;;;;;28.05;19.85;;;15.40;59.20;;;;;;4015824;29;20060;-42
2024/03/09 09:17:33;;;;;;;30.65;20.00;;;15.30;59.30;;;;;;4029223;29;20410;-42
2024/03/09 09:20:15;;;;;;;26.60;19.05;;;15.30;59.40;;;;;;4015620;29;20065;-42
2024/03/09 09:22:58;;;;;;;28.02;19.23;;;15.30;59.70;;;;;;4018854;29;20061;-42
2024/03/09 09:25:39;;;;;;;24.80;18.02;;;15.30;60.40;;;;;;4013829;29;20056;-42
2024/03/09 09:28:22;;;;;;;28.70;18.88;;;15.20;60.70;;;;;;4002460;29;20140;-49
2024/03/09 09:31:03;;;;;;;30.92;19.08;;;15.20;62.10;;;;;;4013810;29;20057;-51
2024/03/09 09:33:44;;;;;;;30.85;18.52;;;15.20;61.50;;;;;;4013878;29;20100;-48
2024/03/09 09:36:26;;;;;;;28.48;18.50;;;15.30;61.10;;;;;;4013310;29;20056;-52
2024/03/09 09:39:13;;;;;;;27.52;18.95;;;15.30;60.30;;;;;;4014266;29;20129;-48
2024/03/09 09:41:56;;;;;;;25.50;17.98;;;15.50;60.90;;;;;;4026087;29;20059;-48
2024/03/09 09:44:40;;;;;;;27.13;16.90;;;15.80;60.30;;;;;;4028932;29;20108;-49
2024/03/09 09:47:21;;;;;;;25.17;17.58;;;16.30;60.00;;;;;;4028398;29;20410;-51
2024/03/09 09:50:03;;;;;;;25.48;17.83;;;16.80;58.80;;;;;;4027410;29;20056;-49
2024/03/09 09:52:47;;;;;;;27.30;19.17;;;17.30;57.20;;;;;;4018793;29;20418;-48
2024/03/09 09:55:29;;;;;;;27.70;17.88;;;17.80;55.70;;;;;;4028769;29;20217;-54
2024/03/09 09:58:10;;;;;;;25.70;17.40;;;18.20;54.50;;;;;;4028870;29;20128;-53
2024/03/09 10:00:54;;;;;;;24.10;16.92;;;18.60;53.70;;;;;;4036181;29;20181;-53
2024/03/09 10:03:36;;;;;;;25.67;18.58;;;19.00;52.30;;;;;;4012986;29;20057;-52
2024/03/09 10:06:21;;;;;;;23.17;17.35;;;19.30;51.60;;;;;;4012152;29;20061;-54
2024/03/09 10:09:02;;;;;;;23.08;17.65;;;19.50;51.30;;;;;;4012815;29;20057;-53
2024/03/09 10:11:43;;;;;;;25.88;18.48;;;19.80;50.80;;;;;;4040838;29;20528;-53
2024/03/09 10:14:28;;;;;;;25.92;19.25;;;19.80;50.40;;;;;;4028204;29;20060;-50
2024/03/09 10:17:11;;;;;;;28.75;19.88;;;19.90;50.50;;;;;;4028965;29;20406;-50
2024/03/09 10:19:53;;;;;;;24.58;18.90;;;19.80;50.10;;;;;;4031907;29;20198;-52
2024/03/09 10:22:34;;;;;;;22.83;17.48;;;19.80;50.40;;;;;;4027967;29;20060;-52
2024/03/09 10:25:24;;;;;;;29.95;18.80;;;19.60;50.60;;;;;;4016545;29;20132;-53
2024/03/09 10:28:08;;;;;;;24.02;17.88;;;19.50;51.10;;;;;;4029619;29;20059;-51
2024/03/09 10:30:49;;;;;;;25.23;18.27;;;19.50;51.00;;;;;;4043187;29;20063;-51
2024/03/09 10:33:34;;;;;;;23.60;18.00;;;19.40;51.30;;;;;;4004056;29;20081;-50
2024/03/09 10:36:17;;;;;;;21.83;16.45;;;19.40;51.30;;;;;;4016403;29;20068;-51
2024/03/09 10:39:00;;;;;;;26.13;19.08;;;19.50;50.90;;;;;;4027474;29;20056;-50
2024/03/09 10:41:41;;;;;;;23.38;15.88;;;19.50;50.60;;;;;;4028382;29;20513;-53
2024/03/09 10:44:24;;;;;;;25.98;18.85;;;19.50;50.60;;;;;;4027419;29;20493;-51
2024/03/09 10:47:09;;;;;;;24.73;18.10;;;19.50;51.00;;;;;;4028177;29;20127;-49
2024/03/09 10:49:59;;;;;;;23.65;18.63;;;19.50;50.70;;;;;;4012776;29;20060;-51
2024/03/09 10:52:44;;;;;;;22.92;17.55;;;19.60;50.60;;;;;;4000380;29;20065;-53
2024/03/09 10:55:34;;;;;;;24.58;17.52;;;19.50;50.40;;;;;;4026373;29;20413;-51
2024/03/09 10:58:18;;;;;;;25.20;19.27;;;19.60;50.20;;;;;;4043465;29;20158;-55
2024/03/09 11:01:00;;;;;;;24.33;16.85;;;19.60;50.40;;;;;;4024118;29;20061;-52
2024/03/09 11:03:41;;;;;;;24.30;17.75;;;19.60;50.70;;;;;;4011787;29;20056;-52
2024/03/09 11:06:24;;;;;;;26.35;17.33;;;19.60;50.30;;;;;;4012702;29;20077;-51
2024/03/09 11:09:11;;;;;;;26.45;18.60;;;19.60;49.60;;;;;;3995034;29;20056;-50
2024/03/09 11:11:52;;;;;;;24.30;18.88;;;19.60;49.60;;;;;;4027010;29;20052;-53
2024/03/09 11:14:34;;;;;;;25.55;16.65;;;19.60;49.80;;;;;;4012797;29;20060;-51
2024/03/09 11:17:18;;;;;;;25.40;18.35;;;19.70;50.10;;;;;;4011534;29;20101;-54
2024/03/09 11:20:00;;;;;;;23.90;18.65;;;19.70;49.80;;;;;;4016830;29;20064;-53
2024/03/09 11:22:45;;;;;;;;;;;19.70;49.90;;;;;;4043494;29;20576;-53
2024/03/09 11:25:44;;;;;;;22.23;16.38;;;19.60;50.10;;;;;;4042589;29;20388;-52
2024/03/09 11:28:28;;;;;;;22.50;17.90;;;19.50;49.80;;;;;;4026104;29;20060;-52
2024/03/09 11:31:14;;;;;;;23.75;16.35;;;19.40;50.40;;;;;;4027498;29;20100;-55
2024/03/09 11:34:14;;;;;;;24.55;17.52;;;19.20;50.80;;;;;;4027833;29;20051;-52
2024/03/09 11:36:57;;;;;;;21.85;15.73;;;19.20;50.50;;;;;;4015316;29;20045;-53
2024/03/09 11:39:40;;;;;;;21.98;15.35;;;19.20;50.30;;;;;;4022267;29;20092;-52
2024/03/09 11:42:25;;;;;;;22.98;16.40;;;19.30;51.10;;;;;;4012761;29;20072;-49
2024/03/09 11:45:13;;;;;;;24.17;17.75;;;19.50;50.50;;;;;;4013894;29;20061;-55
2024/03/09 11:47:53;;;;;;;22.80;16.73;;;19.60;49.90;;;;;;4018918;29;20482;-53
2024/03/09 11:50:38;;;;;;;22.48;16.13;;;19.70;49.50;;;;;;4027710;29;20060;-53
2024/03/09 11:53:19;;;;;;;22.27;17.23;;;19.70;49.30;;;;;;4027440;29;20128;-53
2024/03/09 11:56:03;;;;;;;22.65;16.25;;;19.80;48.70;;;;;;4027104;29;20443;-55
2024/03/09 11:58:44;;;;;;;22.15;16.67;;;19.80;48.80;;;;;;4027233;29;20151;-53
2024/03/09 12:01:25;;;;;;;23.73;15.77;;;19.80;48.80;;;;;;4027569;29;20136;-53
2024/03/09 12:04:07;;;;;;;20.25;15.93;;;19.70;49.00;;;;;;4015724;29;20059;-53
2024/03/09 12:06:49;;;;;;;24.80;16.42;;;19.60;48.80;;;;;;4027339;29;20064;-52
2024/03/09 12:09:30;;;;;;;21.58;16.63;;;19.50;49.20;;;;;;4026983;29;20184;-48
2024/03/09 12:12:14;;;;;;;;;;;19.50;49.10;;;;;;4017903;29;20067;-43
2024/03/09 12:14:55;;;;;;;21.92;18.33;;;19.40;49.50;;;;;;4011934;29;19934;-43
2024/03/09 12:17:37;;;;;;;23.52;16.55;;;19.40;49.60;;;;;;4011491;29;20883;-47
2024/03/09 12:20:18;;;;;;;21.42;15.73;;;19.40;49.50;;;;;;4015987;29;20084;-51
2024/03/09 12:22:59;;;;;;;23.73;16.33;;;19.40;49.80;;;;;;4020121;29;20052;-44
2024/03/09 12:25:42;;;;;;;21.77;15.25;;;19.40;49.70;;;;;;4008405;29;20064;-43
2024/03/09 12:28:27;;;;;;;18.70;15.02;;;19.40;49.70;;;;;;4027234;29;20210;-44
2024/03/09 12:31:09;;;;;;;21.60;16.45;;;19.40;49.00;;;;;;4029826;29;20064;-52
2024/03/09 12:33:52;;;;;;;21.60;15.32;;;19.40;49.50;;;;;;4025617;29;20076;-53
2024/03/09 12:36:34;;;;;;;21.70;16.42;;;19.50;49.30;;;;;;4029914;29;20181;-51
2024/03/09 12:39:16;;;;;;;20.73;14.13;;;19.50;48.20;;;;;;4022744;29;20069;-51
2024/03/09 12:41:57;;;;;;;21.48;14.70;;;19.50;49.00;;;;;;4024950;29;20052;-51
2024/03/09 12:44:41;;;;;;;20.77;15.27;;;19.50;49.40;;;;;;4015064;29;20202;-54
2024/03/09 12:47:23;;;;;;;21.33;14.07;;;19.40;49.70;;;;;;4014640;29;20126;-54
2024/03/09 12:50:08;;;;;;;20.00;14.13;;;19.40;49.60;;;;;;4043101;29;20108;-50
2024/03/09 12:52:50;;;;;;;19.10;14.18;;;19.30;50.00;;;;;;4045222;29;20126;-50
2024/03/09 12:55:35;;;;;;;18.88;14.40;;;19.30;50.20;;;;;;4044916;29;20107;-50
2024/03/09 12:58:19;;;;;;;21.35;15.52;;;19.20;50.10;;;;;;4039525;29;20261;-50
2024/03/09 13:01:03;;;;;;;16.85;12.13;;;19.30;49.80;;;;;;4029226;29;20064;-50
2024/03/09 13:03:54;;;;;;;17.88;13.95;;;19.30;50.30;;;;;;4042988;29;20107;-52
2024/03/09 13:06:41;;;;;;;17.55;13.15;;;19.30;50.40;;;;;;4044484;29;20087;-52
2024/03/09 13:09:30;;;;;;;21.15;13.88;;;19.30;50.20;;;;;;4044734;29;20127;-51
2024/03/09 13:12:11;;;;;;;18.70;13.43;;;19.30;50.30;;;;;;4025044;29;20064;-50
2024/03/09 13:14:54;;;;;;;19.00;13.50;;;19.30;50.70;;;;;;4028702;29;20060;-53
2024/03/09 13:17:37;;;;;;;19.90;13.75;;;19.30;50.70;;;;;;4039040;29;20192;-50
2024/03/09 13:20:20;;;;;;;18.27;13.90;;;19.30;50.30;;;;;;4013353;29;20516;-50
2024/03/09 13:23:03;;;;;;;17.75;14.00;;;19.30;50.20;;;;;;4023853;29;20067;-50
2024/03/09 13:25:46;;;;;;;17.52;13.77;;;19.30;50.60;;;;;;4029334;29;20056;-52
2024/03/09 13:28:30;;;;;;;20.92;14.98;;;19.30;50.30;;;;;;4028865;29;20418;-55
2024/03/09 13:31:12;;;;;;;17.13;14.10;;;19.30;50.50;;;;;;4028423;29;20434;-51
2024/03/09 13:33:55;;;;;;;17.92;13.90;;;19.20;50.30;;;;;;4025737;29;20060;-53
2024/03/09 13:36:38;;;;;;;18.75;14.43;;;19.20;50.20;;;;;;4013716;29;20064;-52
2024/03/09 13:39:26;;;;;;;17.38;14.23;;;19.10;50.70;;;;;;4013335;29;20055;-54
2024/03/09 13:42:10;;;;;;;17.83;13.73;;;19.10;51.10;;;;;;4024445;29;20611;-50
2024/03/09 13:44:54;;;;;;;17.73;13.52;;;19.00;51.40;;;;;;4044308;29;20131;-52
2024/03/09 13:47:35;;;;;;;18.63;13.85;;;18.90;51.50;;;;;;4029649;29;20432;-54